Terminal Aerodrome Forecast
Issued by NWS

Home | Current Version | Previous Version | Text Only | Print | Product List | Glossary On
Versions: 1 2 3 4 5 6 7 8 9 10 11 12 13 14 15 16 17 18
000
FTUS44 KLZK 231700
TAFPBF
TAF
KPBF 231729Z 2318/2418 22004KT P6SM SCT035
     FM232100 28009KT P6SM VCTS SCT050CB
     FM240200 30002KT P6SM SCT150
     FM240800 VRB02KT 4SM BR SCT015
     FM241200 36007KT 6SM BR SKC=

USA.gov is the U.S. government's official web portal to all federal, state and local government web resources and services.